Time;durP1;ratioP1;P1;durP2;ratioP2;P2;SDS_P1;SDS_P2;PMS_P1;PMS_P2;Temp;Humidity;BMP_temperature;BMP_pressure;BME280_temperature;BME280_humidity;BME280_pressure;Samples;Min_cycle;Max_cycle;Signal;HPM_P1;HPM_P2
2023/03/05 00:01:33;;;;;;;16.40;2.63;;;;;;;;;;5061697;28;20065;-77
2023/03/05 00:04:01;;;;;;;14.77;2.65;;;;;;;;;;5050700;28;20037;-79
2023/03/05 00:06:28;;;;;;;12.70;2.88;;;;;;;;;;5084131;28;20041;-77
2023/03/05 00:08:58;;;;;;;10.18;2.75;;;;;;;;;;5085920;28;20036;-77
2023/03/05 00:11:28;;;;;;;6.72;2.40;;;;;;;;;;5070299;28;20041;-78
2023/03/05 00:13:56;;;;;;;12.00;3.15;;;;;;;;;;5068298;28;20037;-78
2023/03/05 00:16:25;;;;;;;9.98;3.13;;;;;;;;;;5065917;28;20037;-79
2023/03/05 00:18:52;;;;;;;14.77;3.65;;;;;;;;;;5066185;28;20067;-80
2023/03/05 00:21:21;;;;;;;13.90;3.55;;;;;;;;;;5081849;28;20083;-79
2023/03/05 00:23:49;;;;;;;12.93;3.20;;;;;;;;;;5065773;28;20048;-80
2023/03/05 00:26:16;;;;;;;18.38;3.88;;;;;;;;;;5045943;28;20053;-79
2023/03/05 00:28:46;;;;;;;15.93;4.28;;;;;;;;;;5045680;28;20339;-78
2023/03/05 00:31:13;;;;;;;14.48;4.20;;;;;;;;;;5047959;28;20177;-78
2023/03/05 00:33:39;;;;;;;16.00;4.47;;;;;;;;;;5047435;28;20057;-77
2023/03/05 00:36:06;;;;;;;16.88;4.57;;;;;;;;;;5047448;28;20055;-77
2023/03/05 00:38:34;;;;;;;14.52;4.80;;;;;;;;;;5047106;28;20065;-78
2023/03/05 00:41:01;;;;;;;16.70;4.78;;;;;;;;;;5046463;28;20044;-79
2023/03/05 00:43:28;;;;;;;15.02;4.18;;;;;;;;;;5047698;28;20064;-76
2023/03/05 00:45:54;;;;;;;19.27;5.32;;;;;;;;;;5047128;28;20140;-77
2023/03/05 00:48:21;;;;;;;15.45;4.68;;;;;;;;;;5075379;28;20127;-76
2023/03/05 00:50:48;;;;;;;17.23;4.75;;;;;;;;;;5059141;28;20045;-77
2023/03/05 00:53:14;;;;;;;15.25;4.75;;;;;;;;;;5080942;28;20045;-77
2023/03/05 00:55:41;;;;;;;18.65;5.28;;;;;;;;;;5046637;28;20049;-77
2023/03/05 00:58:08;;;;;;;19.27;5.05;;;;;;;;;;5043997;28;20041;-77
2023/03/05 01:00:36;;;;;;;11.93;4.97;;;;;;;;;;5079270;28;20042;-79
2023/03/05 01:03:02;;;;;;;17.42;5.15;;;;;;;;;;5045303;28;20056;-78
2023/03/05 01:05:29;;;;;;;17.00;5.25;;;;;;;;;;5076648;28;20045;-79
2023/03/05 01:07:56;;;;;;;19.75;4.78;;;;;;;;;;5076131;28;20506;-77
2023/03/05 01:10:26;;;;;;;12.63;4.50;;;;;;;;;;5042805;28;20045;-79
2023/03/05 01:12:54;;;;;;;17.02;5.07;;;;;;;;;;5044323;28;20049;-78
2023/03/05 01:15:20;;;;;;;16.63;4.57;;;;;;;;;;5046790;28;20469;-78
2023/03/05 01:17:47;;;;;;;18.50;4.78;;;;;;;;;;5045255;28;20053;-78
2023/03/05 01:20:15;;;;;;;18.90;4.57;;;;;;;;;;5045082;28;20042;-78
2023/03/05 01:22:41;;;;;;;21.00;4.63;;;;;;;;;;5047140;28;20049;-81
2023/03/05 01:25:08;;;;;;;21.27;5.18;;;;;;;;;;5061471;28;20041;-78
2023/03/05 01:27:35;;;;;;;23.10;4.65;;;;;;;;;;5062018;28;20079;-79
2023/03/05 01:30:02;;;;;;;19.42;5.90;;;;;;;;;;5062610;28;20064;-79
2023/03/05 01:32:29;;;;;;;21.58;5.70;;;;;;;;;;5064039;28;20033;-79
2023/03/05 01:34:55;;;;;;;18.65;5.40;;;;;;;;;;5081191;28;20045;-79
2023/03/05 01:37:22;;;;;;;24.88;6.38;;;;;;;;;;5054842;28;20071;-78
2023/03/05 01:39:48;;;;;;;16.77;5.28;;;;;;;;;;5053452;28;20567;-78
2023/03/05 01:42:15;;;;;;;15.85;5.55;;;;;;;;;;5059409;28;20128;-78
2023/03/05 01:44:58;;;;;;;18.95;5.22;;;;;;;;;;5062675;28;20048;-78
2023/03/05 01:47:25;;;;;;;15.80;4.70;;;;;;;;;;5062039;28;20041;-78
2023/03/05 01:49:54;;;;;;;14.65;4.43;;;;;;;;;;5065518;28;20049;-78
2023/03/05 01:52:21;;;;;;;24.25;4.40;;;;;;;;;;5066076;28;20041;-78
2023/03/05 01:54:50;;;;;;;15.25;4.30;;;;;;;;;;5062150;28;20052;-79
2023/03/05 01:57:19;;;;;;;16.95;4.68;;;;;;;;;;5063577;28;20037;-77
2023/03/05 01:59:47;;;;;;;15.93;4.45;;;;;;;;;;5065608;28;20075;-79
2023/03/05 02:02:15;;;;;;;14.85;4.10;;;;;;;;;;5065671;28;20076;-78
2023/03/05 02:04:45;;;;;;;16.55;4.28;;;;;;;;;;5062181;28;20120;-78
2023/03/05 02:07:12;;;;;;;15.63;4.13;;;;;;;;;;5065207;28;20044;-79
2023/03/05 02:09:39;;;;;;;13.27;3.80;;;;;;;;;;5061473;28;20041;-77
2023/03/05 02:12:10;;;;;;;11.43;3.42;;;;;;;;;;5060280;28;20047;-77
2023/03/05 02:14:37;;;;;;;18.73;3.45;;;;;;;;;;5062463;28;20137;-78
2023/03/05 02:17:04;;;;;;;16.52;3.78;;;;;;;;;;5059090;28;20040;-77
2023/03/05 02:19:44;;;;;;;14.40;3.65;;;;;;;;;;5095233;28;20041;-79
2023/03/05 02:22:14;;;;;;;10.85;3.00;;;;;;;;;;5063480;28;20037;-77
2023/03/05 02:24:41;;;;;;;14.05;3.35;;;;;;;;;;5062079;28;20045;-78
2023/03/05 02:27:08;;;;;;;12.38;2.60;;;;;;;;;;5062247;28;20037;-79
2023/03/05 02:29:44;;;;;;;17.40;3.15;;;;;;;;;;5043194;28;20052;-79
2023/03/05 02:32:11;;;;;;;15.57;2.95;;;;;;;;;;5040735;28;20048;-80
2023/03/05 02:34:39;;;;;;;12.40;3.28;;;;;;;;;;5073693;28;20171;-78
2023/03/05 02:37:08;;;;;;;17.30;3.30;;;;;;;;;;5016203;28;20033;-78
2023/03/05 02:39:36;;;;;;;14.10;3.22;;;;;;;;;;5035323;28;20064;-78
2023/03/05 02:42:03;;;;;;;15.18;3.50;;;;;;;;;;5040832;28;20054;-77
2023/03/05 02:44:31;;;;;;;11.43;3.25;;;;;;;;;;5072857;28;20045;-78
2023/03/05 02:46:58;;;;;;;12.27;3.40;;;;;;;;;;5070733;28;20072;-78
2023/03/05 02:49:25;;;;;;;10.57;2.90;;;;;;;;;;5037953;28;20421;-77
2023/03/05 02:51:52;;;;;;;12.50;3.00;;;;;;;;;;5040021;28;20050;-79
2023/03/05 02:54:19;;;;;;;9.98;2.78;;;;;;;;;;5071142;28;20046;-77
2023/03/05 02:56:46;;;;;;;16.77;2.60;;;;;;;;;;5038581;28;20056;-78
2023/03/05 02:59:13;;;;;;;13.93;2.47;;;;;;;;;;5069072;28;20057;-77
2023/03/05 03:01:41;;;;;;;8.40;1.90;;;;;;;;;;5041931;28;20042;-78
2023/03/05 03:04:08;;;;;;;9.43;2.58;;;;;;;;;;5060348;28;20061;-78
2023/03/05 03:06:34;;;;;;;10.20;2.40;;;;;;;;;;5067124;28;20053;-79
2023/03/05 03:09:01;;;;;;;12.25;2.08;;;;;;;;;;5020261;28;20501;-78
2023/03/05 03:11:27;;;;;;;8.57;2.40;;;;;;;;;;5038934;28;20111;-77
2023/03/05 03:13:54;;;;;;;8.48;2.08;;;;;;;;;;5035314;28;20053;-77
2023/03/05 03:16:21;;;;;;;13.80;2.03;;;;;;;;;;5033896;28;20053;-78
2023/03/05 03:18:47;;;;;;;12.25;2.20;;;;;;;;;;5033411;28;20076;-78
2023/03/05 03:21:16;;;;;;;10.32;2.80;;;;;;;;;;5042625;28;20065;-78
2023/03/05 03:23:42;;;;;;;11.35;3.33;;;;;;;;;;5037892;28;20053;-76
2023/03/05 03:26:09;;;;;;;13.32;3.83;;;;;;;;;;5031865;28;20041;-77
2023/03/05 03:28:37;;;;;;;14.20;3.25;;;;;;;;;;5041631;28;20119;-78
2023/03/05 03:31:03;;;;;;;9.90;2.92;;;;;;;;;;5064991;28;20114;-78
2023/03/05 03:33:30;;;;;;;8.95;2.70;;;;;;;;;;5066823;28;20068;-77
2023/03/05 03:35:57;;;;;;;12.48;2.55;;;;;;;;;;5067011;28;20110;-77
2023/03/05 03:38:25;;;;;;;16.85;3.17;;;;;;;;;;5067050;28;20098;-78
2023/03/05 03:40:51;;;;;;;11.90;3.03;;;;;;;;;;5069736;28;20064;-78
2023/03/05 03:43:18;;;;;;;11.88;3.17;;;;;;;;;;5069480;28;20037;-79
2023/03/05 03:45:45;;;;;;;11.98;2.70;;;;;;;;;;5066419;28;20132;-77
2023/03/05 03:48:12;;;;;;;15.35;3.00;;;;;;;;;;5062828;28;20075;-77
2023/03/05 03:50:40;;;;;;;16.85;3.08;;;;;;;;;;5062569;28;20049;-77
2023/03/05 03:53:06;;;;;;;8.27;2.85;;;;;;;;;;5057483;28;20080;-78
2023/03/05 03:55:33;;;;;;;9.63;3.03;;;;;;;;;;5078884;28;20036;-77
2023/03/05 03:58:00;;;;;;;11.00;3.22;;;;;;;;;;5055968;28;20065;-77
2023/03/05 04:00:26;;;;;;;18.17;3.78;;;;;;;;;;5034977;28;20525;-76
2023/03/05 04:02:53;;;;;;;17.00;3.42;;;;;;;;;;5037482;28;20056;-77
2023/03/05 04:05:19;;;;;;;16.20;3.72;;;;;;;;;;5056111;28;20136;-78
2023/03/05 04:07:46;;;;;;;12.05;3.50;;;;;;;;;;5042830;28;20113;-77
2023/03/05 04:10:12;;;;;;;14.23;3.65;;;;;;;;;;5040549;28;20043;-78
2023/03/05 04:12:41;;;;;;;15.15;3.10;;;;;;;;;;5044015;28;20033;-79
2023/03/05 04:15:09;;;;;;;14.75;3.60;;;;;;;;;;5042105;28;20061;-77
2023/03/05 04:17:36;;;;;;;12.35;3.13;;;;;;;;;;5042082;28;20034;-79
2023/03/05 04:20:04;;;;;;;8.75;2.85;;;;;;;;;;5048713;28;20094;-77
2023/03/05 04:22:32;;;;;;;10.95;3.08;;;;;;;;;;5048706;28;20045;-78
2023/03/05 04:24:59;;;;;;;13.40;2.83;;;;;;;;;;5046881;28;20109;-77
2023/03/05 04:27:26;;;;;;;9.23;2.05;;;;;;;;;;5047447;28;20049;-77
2023/03/05 04:29:52;;;;;;;8.23;2.00;;;;;;;;;;5048822;28;20045;-79
2023/03/05 04:32:21;;;;;;;6.82;1.70;;;;;;;;;;5079967;28;20422;-79
2023/03/05 04:34:48;;;;;;;7.43;1.60;;;;;;;;;;5080191;28;20042;-78
2023/03/05 04:37:15;;;;;;;6.63;1.30;;;;;;;;;;5047244;28;20080;-78
2023/03/05 04:39:42;;;;;;;6.28;0.98;;;;;;;;;;5046329;28;20046;-78
2023/03/05 04:42:09;;;;;;;6.28;0.90;;;;;;;;;;5049980;28;20029;-78
2023/03/05 04:44:36;;;;;;;2.67;0.93;;;;;;;;;;5050392;28;20057;-78
2023/03/05 04:47:02;;;;;;;4.38;0.80;;;;;;;;;;5082788;28;20060;-78
2023/03/05 04:49:29;;;;;;;4.25;0.82;;;;;;;;;;5081333;28;20064;-78
2023/03/05 04:51:56;;;;;;;4.43;0.60;;;;;;;;;;5083945;28;20041;-78
2023/03/05 04:54:23;;;;;;;4.43;0.70;;;;;;;;;;5051748;28;20109;-78
2023/03/05 04:56:49;;;;;;;3.70;0.63;;;;;;;;;;5084159;28;20047;-79
2023/03/05 04:59:16;;;;;;;6.38;0.55;;;;;;;;;;5051239;28;20072;-78
2023/03/05 05:01:43;;;;;;;4.78;0.68;;;;;;;;;;5082122;28;20045;-78
2023/03/05 05:04:13;;;;;;;1.52;0.47;;;;;;;;;;5077906;28;20049;-78
2023/03/05 05:06:40;;;;;;;6.35;0.90;;;;;;;;;;5048642;28;20041;-77
2023/03/05 05:09:06;;;;;;;1.35;0.52;;;;;;;;;;5048194;28;20041;-79
2023/03/05 05:11:33;;;;;;;7.63;0.88;;;;;;;;;;5079251;28;20051;-78
2023/03/05 05:14:00;;;;;;;2.40;0.70;;;;;;;;;;5044838;28;20110;-76
2023/03/05 05:16:26;;;;;;;7.00;0.82;;;;;;;;;;5045622;28;20065;-79
2023/03/05 05:18:53;;;;;;;5.55;0.98;;;;;;;;;;5077155;28;20076;-78
2023/03/05 05:21:20;;;;;;;5.15;0.80;;;;;;;;;;5061285;28;20059;-77
2023/03/05 05:23:46;;;;;;;8.00;1.13;;;;;;;;;;5038174;28;20080;-78
2023/03/05 05:26:13;;;;;;;3.92;0.63;;;;;;;;;;5041882;28;20045;-78
2023/03/05 05:28:44;;;;;;;1.90;0.60;;;;;;;;;;5057367;28;20047;-77
2023/03/05 05:31:12;;;;;;;2.15;0.70;;;;;;;;;;5064100;28;20137;-78
2023/03/05 05:33:39;;;;;;;7.30;0.90;;;;;;;;;;5062635;28;20052;-77
2023/03/05 05:36:06;;;;;;;7.10;1.35;;;;;;;;;;5061103;28;20100;-77
2023/03/05 05:38:33;;;;;;;8.25;1.10;;;;;;;;;;5079339;28;20190;-78
2023/03/05 05:41:01;;;;;;;8.80;1.00;;;;;;;;;;5066716;28;20055;-79
2023/03/05 05:43:27;;;;;;;3.28;0.95;;;;;;;;;;5047936;28;20041;-76
2023/03/05 05:45:57;;;;;;;5.78;1.05;;;;;;;;;;5047447;28;20037;-78
2023/03/05 05:48:24;;;;;;;3.75;1.05;;;;;;;;;;5085180;28;20082;-78
2023/03/05 05:50:53;;;;;;;4.40;1.25;;;;;;;;;;5053647;28;20071;-77
2023/03/05 05:53:20;;;;;;;5.63;1.00;;;;;;;;;;5069120;28;20037;-79
2023/03/05 05:55:46;;;;;;;3.20;0.85;;;;;;;;;;5069461;28;20055;-76
2023/03/05 05:58:46;;;;;;;5.15;1.10;;;;;;;;;;5068921;28;20076;-77
2023/03/05 06:01:16;;;;;;;2.22;0.68;;;;;;;;;;5052431;28;20457;-78
2023/03/05 06:03:43;;;;;;;2.85;0.85;;;;;;;;;;5050058;28;20098;-77
2023/03/05 06:06:11;;;;;;;2.53;0.77;;;;;;;;;;5064696;28;20041;-77
2023/03/05 06:08:38;;;;;;;6.70;0.77;;;;;;;;;;5064649;28;20235;-77
2023/03/05 06:11:05;;;;;;;3.00;0.60;;;;;;;;;;5068325;28;20108;-78
2023/03/05 06:13:32;;;;;;;2.95;0.70;;;;;;;;;;5051402;28;20041;-79
2023/03/05 06:15:59;;;;;;;3.13;0.70;;;;;;;;;;5062327;28;20045;-77
2023/03/05 06:18:26;;;;;;;2.92;0.55;;;;;;;;;;5063590;28;20606;-78
2023/03/05 06:20:56;;;;;;;4.00;0.85;;;;;;;;;;5044870;28;20067;-77
2023/03/05 06:23:23;;;;;;;5.38;0.80;;;;;;;;;;5049016;28;20336;-76
2023/03/05 06:25:49;;;;;;;3.75;1.20;;;;;;;;;;5032651;28;20446;-76
2023/03/05 06:28:16;;;;;;;5.57;1.13;;;;;;;;;;5037713;28;20048;-78
2023/03/05 06:30:42;;;;;;;5.18;0.93;;;;;;;;;;5046860;28;20053;-76
2023/03/05 06:33:09;;;;;;;4.80;0.88;;;;;;;;;;5038763;28;20528;-78
2023/03/05 06:35:37;;;;;;;5.00;1.00;;;;;;;;;;5038291;28;20051;-76
2023/03/05 06:38:03;;;;;;;3.25;1.17;;;;;;;;;;5042980;28;20041;-80
2023/03/05 06:40:30;;;;;;;3.05;1.15;;;;;;;;;;5007631;28;20042;-76
2023/03/05 06:42:57;;;;;;;2.75;0.95;;;;;;;;;;5016804;28;20045;-79
2023/03/05 06:45:23;;;;;;;3.22;1.20;;;;;;;;;;5026336;28;20042;-79
2023/03/05 06:47:50;;;;;;;5.43;1.15;;;;;;;;;;5044610;28;20052;-77
2023/03/05 06:50:16;;;;;;;4.03;1.10;;;;;;;;;;5028425;28;20059;-77
2023/03/05 06:52:43;;;;;;;6.85;1.42;;;;;;;;;;5027643;28;20379;-78
2023/03/05 06:55:10;;;;;;;6.47;1.45;;;;;;;;;;5012769;28;20148;-77
2023/03/05 06:57:36;;;;;;;9.30;1.55;;;;;;;;;;5028233;28;20057;-78
2023/03/05 07:00:08;;;;;;;5.00;1.17;;;;;;;;;;5044767;28;20045;-77
2023/03/05 07:02:36;;;;;;;7.25;1.05;;;;;;;;;;5032957;28;20368;-79
2023/03/05 07:05:03;;;;;;;6.25;1.20;;;;;;;;;;5050958;28;20480;-77
2023/03/05 07:07:30;;;;;;;3.33;1.25;;;;;;;;;;5050458;28;20075;-79
2023/03/05 07:09:57;;;;;;;4.88;1.00;;;;;;;;;;5035359;28;20416;-78
2023/03/05 07:12:24;;;;;;;7.32;1.40;;;;;;;;;;5035228;28;20339;-77
2023/03/05 07:14:50;;;;;;;3.88;1.15;;;;;;;;;;5034783;28;20095;-79
2023/03/05 07:17:17;;;;;;;3.75;1.00;;;;;;;;;;5031211;28;20049;-78
2023/03/05 07:19:43;;;;;;;3.95;1.17;;;;;;;;;;5057621;28;20095;-77
2023/03/05 07:22:10;;;;;;;5.95;1.30;;;;;;;;;;5072770;28;20131;-78
2023/03/05 07:24:37;;;;;;;8.20;1.17;;;;;;;;;;5034867;28;20049;-77
2023/03/05 07:27:03;;;;;;;5.95;1.02;;;;;;;;;;5049583;28;20137;-77
2023/03/05 07:29:30;;;;;;;5.55;1.33;;;;;;;;;;5038981;28;20049;-77
2023/03/05 07:31:56;;;;;;;5.13;0.98;;;;;;;;;;5057521;28;20053;-78
2023/03/05 07:34:23;;;;;;;7.03;1.42;;;;;;;;;;5053072;28;20064;-76
2023/03/05 07:36:52;;;;;;;4.90;1.38;;;;;;;;;;5047188;28;20107;-77
2023/03/05 07:39:19;;;;;;;5.35;1.13;;;;;;;;;;5044625;28;20525;-78
2023/03/05 07:41:46;;;;;;;5.55;0.93;;;;;;;;;;5027537;28;20084;-78
2023/03/05 07:44:16;;;;;;;4.68;1.38;;;;;;;;;;5040819;28;20037;-77
2023/03/05 07:46:43;;;;;;;7.40;1.05;;;;;;;;;;5041253;28;20068;-77
2023/03/05 07:49:09;;;;;;;6.25;1.23;;;;;;;;;;5040019;28;20060;-78
2023/03/05 07:51:36;;;;;;;6.78;1.25;;;;;;;;;;5037922;28;20367;-77
2023/03/05 07:54:03;;;;;;;3.40;1.10;;;;;;;;;;5036587;28;20033;-78
2023/03/05 07:56:31;;;;;;;4.68;0.77;;;;;;;;;;5038262;28;20080;-77
2023/03/05 07:58:58;;;;;;;4.80;1.10;;;;;;;;;;5028161;28;20486;-76
2023/03/05 08:01:25;;;;;;;6.10;1.08;;;;;;;;;;5040289;28;20105;-76
2023/03/05 08:03:52;;;;;;;5.63;0.88;;;;;;;;;;5039169;28;20041;-77
2023/03/05 08:06:19;;;;;;;3.17;1.02;;;;;;;;;;5041513;28;20048;-77
2023/03/05 08:08:45;;;;;;;4.63;1.00;;;;;;;;;;5039297;28;20045;-76
2023/03/05 08:11:13;;;;;;;2.08;0.75;;;;;;;;;;5039275;28;20064;-77
2023/03/05 08:13:40;;;;;;;4.05;0.80;;;;;;;;;;5050691;28;20131;-77
2023/03/05 08:16:08;;;;;;;5.28;0.80;;;;;;;;;;5033851;28;20572;-78
2023/03/05 08:18:35;;;;;;;6.50;1.10;;;;;;;;;;5030733;28;20049;-79
2023/03/05 08:21:02;;;;;;;4.68;1.02;;;;;;;;;;5031788;28;20053;-77
2023/03/05 08:23:29;;;;;;;4.80;0.90;;;;;;;;;;5029677;28;20049;-79
2023/03/05 08:25:56;;;;;;;4.85;1.00;;;;;;;;;;5063625;28;20499;-78
2023/03/05 08:28:22;;;;;;;4.13;1.23;;;;;;;;;;5040005;28;20053;-78
2023/03/05 08:30:49;;;;;;;3.47;0.73;;;;;;;;;;5044891;28;20049;-80
2023/03/05 08:33:18;;;;;;;4.55;0.98;;;;;;;;;;5052622;28;20060;-79
2023/03/05 08:35:45;;;;;;;5.03;0.93;;;;;;;;;;5044947;28;20057;-80
2023/03/05 08:38:12;;;;;;;5.32;0.73;;;;;;;;;;5025425;28;20056;-77
2023/03/05 08:40:39;;;;;;;3.20;1.02;;;;;;;;;;5011911;28;20422;-78
2023/03/05 08:43:06;;;;;;;2.60;0.63;;;;;;;;;;5010591;28;20049;-81
2023/03/05 08:45:32;;;;;;;4.10;1.15;;;;;;;;;;5040783;28;20049;-77
2023/03/05 08:47:59;;;;;;;5.28;1.50;;;;;;;;;;5006134;28;20156;-75
2023/03/05 08:50:26;;;;;;;5.45;1.00;;;;;;;;;;5025670;28;20045;-77
2023/03/05 08:52:52;;;;;;;4.20;1.10;;;;;;;;;;5010528;28;20053;-77
2023/03/05 08:55:19;;;;;;;4.28;1.10;;;;;;;;;;5044835;28;20041;-77
2023/03/05 08:57:45;;;;;;;3.53;1.05;;;;;;;;;;5047023;28;20053;-77
2023/03/05 09:00:12;;;;;;;4.90;1.48;;;;;;;;;;5030837;28;20207;-78
2023/03/05 09:02:39;;;;;;;5.80;1.35;;;;;;;;;;5025103;28;20449;-78
2023/03/05 09:05:06;;;;;;;6.57;1.23;;;;;;;;;;5027322;28;20114;-77
2023/03/05 09:07:33;;;;;;;4.97;1.30;;;;;;;;;;5050904;28;20080;-77
2023/03/05 09:10:00;;;;;;;4.88;1.02;;;;;;;;;;5019833;28;20055;-77
2023/03/05 09:12:26;;;;;;;8.00;1.13;;;;;;;;;;5026423;28;20056;-77
2023/03/05 09:14:53;;;;;;;5.80;1.17;;;;;;;;;;5039743;28;20147;-78
2023/03/05 09:17:20;;;;;;;5.95;1.20;;;;;;;;;;5037377;28;20053;-77
2023/03/05 09:19:46;;;;;;;9.95;1.38;;;;;;;;;;5023704;28;20520;-77
2023/03/05 09:22:13;;;;;;;5.30;1.50;;;;;;;;;;5023718;28;20045;-77
2023/03/05 09:24:40;;;;;;;7.78;1.50;;;;;;;;;;5022759;28;20045;-77
2023/03/05 09:27:08;;;;;;;8.73;1.65;;;;;;;;;;5021376;28;20118;-78
2023/03/05 09:29:34;;;;;;;4.78;1.50;;;;;;;;;;5024811;28;20084;-78
2023/03/05 09:32:01;;;;;;;7.75;1.75;;;;;;;;;;5022297;28;20417;-76
2023/03/05 09:34:28;;;;;;;5.75;1.55;;;;;;;;;;5020034;28;20053;-79
2023/03/05 09:36:54;;;;;;;7.85;1.65;;;;;;;;;;5022253;28;20525;-75
2023/03/05 09:39:21;;;;;;;6.47;1.92;;;;;;;;;;5020861;28;20033;-76
2023/03/05 09:41:47;;;;;;;8.50;1.70;;;;;;;;;;5020103;28;20557;-78
2023/03/05 09:44:15;;;;;;;4.45;1.70;;;;;;;;;;5022745;28;20452;-78
2023/03/05 09:46:48;;;;;;;6.47;1.60;;;;;;;;;;5018854;28;20349;-78
2023/03/05 09:49:26;;;;;;;3.22;1.23;;;;;;;;;;5021633;28;20041;-78
2023/03/05 09:51:56;;;;;;;8.68;2.00;;;;;;;;;;5017932;28;20076;-79
2023/03/05 09:54:33;;;;;;;7.68;1.85;;;;;;;;;;5019946;28;20039;-79
2023/03/05 09:57:03;;;;;;;4.40;1.10;;;;;;;;;;5020259;28;20052;-79
2023/03/05 09:59:42;;;;;;;9.25;1.90;;;;;;;;;;5019364;28;20279;-78
2023/03/05 10:02:30;;;;;;;4.28;1.48;;;;;;;;;;5025927;28;20041;-79
2023/03/05 10:05:14;;;;;;;9.10;1.95;;;;;;;;;;5034508;28;20099;-77
2023/03/05 10:07:43;;;;;;;6.60;1.80;;;;;;;;;;5016120;28;20518;-78
2023/03/05 10:10:15;;;;;;;4.50;1.90;;;;;;;;;;5020612;28;20474;-78
2023/03/05 10:12:43;;;;;;;9.13;2.05;;;;;;;;;;5021441;28;20111;-77
2023/03/05 10:15:12;;;;;;;6.38;1.85;;;;;;;;;;5021433;28;20049;-76
2023/03/05 10:17:39;;;;;;;7.70;2.22;;;;;;;;;;5019545;28;20126;-79
2023/03/05 10:20:24;;;;;;;5.90;2.15;;;;;;;;;;5063763;28;20052;-80
2023/03/05 10:22:50;;;;;;;10.63;2.08;;;;;;;;;;5066329;28;20060;-78
2023/03/05 10:25:18;;;;;;;8.43;2.38;;;;;;;;;;5025613;28;20045;-77
2023/03/05 10:27:49;;;;;;;11.07;2.17;;;;;;;;;;5020400;28;20099;-76
2023/03/05 10:30:22;;;;;;;8.30;2.27;;;;;;;;;;5024234;28;20049;-78
2023/03/05 10:32:54;;;;;;;7.28;2.00;;;;;;;;;;5023610;28;20533;-76
2023/03/05 10:35:33;;;;;;;3.97;1.70;;;;;;;;;;5031010;28;20103;-78
2023/03/05 10:38:20;;;;;;;9.35;1.77;;;;;;;;;;5040015;28;20078;-78
2023/03/05 10:40:56;;;;;;;7.60;2.10;;;;;;;;;;5030176;28;20055;-76
2023/03/05 10:43:33;;;;;;;3.25;1.90;;;;;;;;;;5035271;28;20386;-76
2023/03/05 10:46:01;;;;;;;3.65;1.98;;;;;;;;;;5036487;28;20333;-78
2023/03/05 10:48:30;;;;;;;4.68;1.88;;;;;;;;;;5056416;28;20064;-77
2023/03/05 10:51:01;;;;;;;7.88;1.88;;;;;;;;;;5031202;28;20148;-79
2023/03/05 10:53:27;;;;;;;7.32;2.40;;;;;;;;;;5028690;28;20045;-78
2023/03/05 10:55:56;;;;;;;5.07;2.15;;;;;;;;;;5044117;28;20061;-77
2023/03/05 10:58:24;;;;;;;9.57;2.15;;;;;;;;;;5030205;28;20045;-78
2023/03/05 11:01:09;;;;;;;8.65;1.90;;;;;;;;;;5045398;28;20052;-77
2023/03/05 11:03:44;;;;;;;6.80;2.17;;;;;;;;;;5046334;28;20063;-78
2023/03/05 11:06:11;;;;;;;;;;;;;;;;;;5039691;28;20045;-78
2023/03/05 11:08:38;;;;;;;4.22;1.58;;;;;;;;;;5047646;28;19939;-77
2023/03/05 11:11:10;;;;;;;4.70;1.83;;;;;;;;;;5038228;28;20055;-77
2023/03/05 11:13:48;;;;;;;5.40;1.88;;;;;;;;;;5026908;28;20056;-77
2023/03/05 11:16:16;;;;;;;4.40;1.67;;;;;;;;;;5032967;28;20308;-77
2023/03/05 11:18:46;;;;;;;3.95;1.40;;;;;;;;;;5032495;28;20069;-77
2023/03/05 11:21:18;;;;;;;8.52;1.90;;;;;;;;;;5075527;28;20037;-78
2023/03/05 11:24:03;;;;;;;7.57;1.83;;;;;;;;;;5060450;28;20049;-78
2023/03/05 11:26:30;;;;;;;8.90;2.00;;;;;;;;;;5026683;28;20049;-79
2023/03/05 11:28:59;;;;;;;9.93;2.15;;;;;;;;;;5029365;28;20888;-79
2023/03/05 11:31:30;;;;;;;5.10;1.98;;;;;;;;;;5027144;28;20045;-77
2023/03/05 11:34:22;;;;;;;4.82;2.13;;;;;;;;;;5027133;28;20049;-77
2023/03/05 11:36:54;;;;;;;6.88;1.95;;;;;;;;;;5021207;28;20505;-77
2023/03/05 11:39:21;;;;;;;3.35;1.67;;;;;;;;;;5024409;28;20136;-78
2023/03/05 11:41:50;;;;;;;5.10;1.90;;;;;;;;;;5026239;28;20517;-79
2023/03/05 11:44:21;;;;;;;5.22;1.55;;;;;;;;;;5024192;28;20409;-78
2023/03/05 11:47:17;;;;;;;4.85;1.95;;;;;;;;;;5034903;28;20049;-78
2023/03/05 11:49:45;;;;;;;3.78;1.83;;;;;;;;;;5008713;28;20368;-78
2023/03/05 11:52:17;;;;;;;4.03;1.70;;;;;;;;;;5008232;28;20053;-78
2023/03/05 11:54:56;;;;;;;7.45;1.50;;;;;;;;;;5016911;28;20049;-78
2023/03/05 11:57:23;;;;;;;2.90;1.52;;;;;;;;;;5054512;28;20053;-78
2023/03/05 11:59:50;;;;;;;4.63;1.90;;;;;;;;;;5024121;28;20057;-78
2023/03/05 12:02:21;;;;;;;8.10;1.95;;;;;;;;;;5022238;28;20092;-78
2023/03/05 12:04:49;;;;;;;7.45;1.70;;;;;;;;;;5021876;28;20069;-80
2023/03/05 12:07:19;;;;;;;5.93;1.77;;;;;;;;;;5020963;28;20434;-78
2023/03/05 12:09:50;;;;;;;5.97;1.30;;;;;;;;;;5016432;28;20060;-78
2023/03/05 12:12:36;;;;;;;4.60;1.35;;;;;;;;;;5026299;28;20148;-78
2023/03/05 12:15:19;;;;;;;3.10;1.20;;;;;;;;;;5027934;28;20052;-79
2023/03/05 12:17:53;;;;;;;5.15;1.17;;;;;;;;;;5030965;28;20199;-78
2023/03/05 12:20:31;;;;;;;3.03;1.20;;;;;;;;;;5008632;28;20411;-79
2023/03/05 12:22:58;;;;;;;5.22;1.38;;;;;;;;;;5023238;28;20092;-78
2023/03/05 12:25:45;;;;;;;4.32;1.33;;;;;;;;;;5027087;28;20037;-78
2023/03/05 12:28:16;;;;;;;6.72;1.30;;;;;;;;;;5025892;28;20495;-77
2023/03/05 12:30:46;;;;;;;2.50;1.27;;;;;;;;;;5008191;28;20073;-78
2023/03/05 12:33:31;;;;;;;4.25;1.20;;;;;;;;;;5043320;28;20362;-78
2023/03/05 12:36:16;;;;;;;6.60;1.90;;;;;;;;;;5010446;28;20129;-79
2023/03/05 12:38:43;;;;;;;4.77;1.60;;;;;;;;;;5027191;28;20051;-79
2023/03/05 12:41:22;;;;;;;4.00;2.10;;;;;;;;;;5011078;28;20237;-78
2023/03/05 12:44:03;;;;;;;3.60;1.50;;;;;;;;;;5021363;28;20604;-79
2023/03/05 12:46:34;;;;;;;5.32;1.50;;;;;;;;;;5008329;28;20236;-78
2023/03/05 12:49:19;;;;;;;6.60;1.95;;;;;;;;;;5007656;28;20447;-79
2023/03/05 12:51:47;;;;;;;3.78;1.52;;;;;;;;;;5044986;28;20052;-78
2023/03/05 12:54:25;;;;;;;4.35;2.10;;;;;;;;;;5051317;28;20060;-79
2023/03/05 12:56:53;;;;;;;4.93;1.75;;;;;;;;;;5029935;28;20049;-78
2023/03/05 12:59:22;;;;;;;4.53;1.42;;;;;;;;;;5030708;28;20527;-78
2023/03/05 13:01:54;;;;;;;5.90;2.00;;;;;;;;;;5049181;28;20478;-78
2023/03/05 13:04:29;;;;;;;5.25;1.70;;;;;;;;;;5059781;28;20041;-78
2023/03/05 13:06:58;;;;;;;4.80;1.63;;;;;;;;;;5048427;28;20083;-79
2023/03/05 13:09:27;;;;;;;4.35;1.88;;;;;;;;;;5033992;28;20049;-79
2023/03/05 13:11:54;;;;;;;7.88;1.77;;;;;;;;;;5057930;28;20564;-78
2023/03/05 13:14:26;;;;;;;5.18;1.80;;;;;;;;;;5039059;28;20511;-78
2023/03/05 13:16:53;;;;;;;4.82;1.58;;;;;;;;;;5065546;28;20052;-77
2023/03/05 13:19:24;;;;;;;4.00;1.65;;;;;;;;;;5047670;28;20505;-78
2023/03/05 13:22:10;;;;;;;4.40;1.50;;;;;;;;;;5049919;28;20044;-77
2023/03/05 13:24:37;;;;;;;3.97;1.40;;;;;;;;;;5060820;28;20497;-78
2023/03/05 13:27:17;;;;;;;5.22;1.40;;;;;;;;;;5037533;28;20056;-79
2023/03/05 13:29:51;;;;;;;2.88;1.17;;;;;;;;;;5021625;28;20084;-76
2023/03/05 13:32:25;;;;;;;3.78;1.10;;;;;;;;;;5028201;28;20072;-77
2023/03/05 13:34:56;;;;;;;3.03;1.30;;;;;;;;;;5027113;28;20127;-78
2023/03/05 13:37:24;;;;;;;3.92;1.10;;;;;;;;;;5060108;28;20117;-79
2023/03/05 13:39:56;;;;;;;3.22;1.25;;;;;;;;;;5046044;28;20033;-78
2023/03/05 13:42:24;;;;;;;2.67;1.42;;;;;;;;;;5045727;28;20057;-78
2023/03/05 13:44:58;;;;;;;2.80;1.20;;;;;;;;;;5046022;28;20127;-78
2023/03/05 13:47:27;;;;;;;2.33;1.27;;;;;;;;;;5044962;28;20052;-78
2023/03/05 13:49:54;;;;;;;2.20;0.90;;;;;;;;;;5040875;28;20069;-78
2023/03/05 13:52:25;;;;;;;3.60;1.38;;;;;;;;;;5047229;28;20044;-78
2023/03/05 13:54:52;;;;;;;4.13;1.20;;;;;;;;;;5046465;28;20543;-78
2023/03/05 13:57:32;;;;;;;5.03;1.10;;;;;;;;;;5032576;28;20285;-79
2023/03/05 13:59:59;;;;;;;3.13;1.30;;;;;;;;;;5049483;28;20055;-79
2023/03/05 14:02:27;;;;;;;3.58;1.30;;;;;;;;;;5034411;28;20128;-81
2023/03/05 14:04:54;;;;;;;2.60;1.00;;;;;;;;;;5027380;28;20090;-78
2023/03/05 14:07:31;;;;;;;3.13;1.13;;;;;;;;;;5047184;28;20049;-78
2023/03/05 14:09:58;;;;;;;4.75;1.30;;;;;;;;;;5058002;28;20053;-79
2023/03/05 14:12:26;;;;;;;6.00;1.00;;;;;;;;;;5053541;28;20042;-78
2023/03/05 14:14:52;;;;;;;2.20;1.00;;;;;;;;;;5054664;28;20623;-78
2023/03/05 14:17:42;;;;;;;2.00;1.30;;;;;;;;;;5038294;28;20414;-79
2023/03/05 14:20:11;;;;;;;5.45;1.33;;;;;;;;;;5022321;28;20599;-78
2023/03/05 14:22:39;;;;;;;4.35;1.02;;;;;;;;;;5041435;28;20533;-78
2023/03/05 14:25:23;;;;;;;5.45;1.60;;;;;;;;;;5026441;28;20049;-79
2023/03/05 14:27:50;;;;;;;5.60;1.45;;;;;;;;;;5055274;28;20052;-77
2023/03/05 14:30:19;;;;;;;5.55;1.40;;;;;;;;;;5031577;28;20188;-79
2023/03/05 14:32:45;;;;;;;4.43;1.00;;;;;;;;;;5028296;28;20157;-78
2023/03/05 14:35:15;;;;;;;2.17;0.93;;;;;;;;;;5023371;28;20073;-77
2023/03/05 14:37:45;;;;;;;2.33;0.90;;;;;;;;;;5021102;28;20072;-78
2023/03/05 14:40:12;;;;;;;4.45;1.00;;;;;;;;;;5019995;28;20363;-77
2023/03/05 14:42:54;;;;;;;4.90;1.27;;;;;;;;;;5021197;28;20060;-77
2023/03/05 14:45:21;;;;;;;5.00;1.50;;;;;;;;;;5032335;28;20476;-79
2023/03/05 14:47:52;;;;;;;3.38;1.40;;;;;;;;;;5022214;28;20052;-78
2023/03/05 14:50:20;;;;;;;3.67;1.30;;;;;;;;;;5021885;28;20060;-78
2023/03/05 14:52:48;;;;;;;3.20;1.30;;;;;;;;;;5020387;28;20480;-78